Terminal Aerodrome Forecast
Issued by NWS Portland, OR

Home | Current Version | Previous Version | Text Only | Print | Product List | Glossary On
Versions: 1 2 3 4 5 6 7 8 9 10 11 12 13 14 15 16 17 18 19 20 21 22 23 24 25 26 27 28 29 30 31 32 33
000
FTUS46 KPQR 081143
TAFPDX
TAF
KPDX 081143Z 0812/0912 09025G37KT P6SM SCT060 BKN120
      TEMPO 0817/0819 -SN
     FM082000 10025G39KT 2SM -SN BR BKN020 OVC045
     FM082200 10025G38KT 3/4SM -SN BR BKN008 OVC012
     FM090300 10021G30KT 3SM -FZRAPL BR SCT008 OVC012
     FM090800 11013G24KT 5SM -FZDZ BR BKN012 OVC025=

USA.gov is the U.S. government's official web portal to all federal, state and local government web resources and services.